sensor_id;sensor_type;location;lat;lon;timestamp;temperature;humidity
30069;DHT22;16894;49.456;10.644;2024-02-28T00:02:29;5.20;99.90
30069;DHT22;16894;49.456;10.644;2024-02-28T00:05:14;5.20;99.90
30069;DHT22;16894;49.456;10.644;2024-02-28T00:07:58;5.30;99.90
30069;DHT22;16894;49.456;10.644;2024-02-28T00:10:43;5.30;99.90
30069;DHT22;16894;49.456;10.644;2024-02-28T00:13:27;5.30;99.90
30069;DHT22;16894;49.456;10.644;2024-02-28T00:16:11;5.30;99.90
30069;DHT22;16894;49.456;10.644;2024-02-28T00:18:55;5.30;99.90
30069;DHT22;16894;49.456;10.644;2024-02-28T00:21:40;5.30;99.90
30069;DHT22;16894;49.456;10.644;2024-02-28T00:24:24;5.30;99.90
30069;DHT22;16894;49.456;10.644;2024-02-28T00:27:08;5.30;99.90
30069;DHT22;16894;49.456;10.644;2024-02-28T00:29:52;5.30;99.90
30069;DHT22;16894;49.456;10.644;2024-02-28T00:32:37;5.30;99.90
30069;DHT22;16894;49.456;10.644;2024-02-28T00:35:21;5.30;99.90
30069;DHT22;16894;49.456;10.644;2024-02-28T00:38:05;5.30;99.90
30069;DHT22;16894;49.456;10.644;2024-02-28T00:40:49;5.20;99.90
30069;DHT22;16894;49.456;10.644;2024-02-28T00:43:33;5.20;99.90
30069;DHT22;16894;49.456;10.644;2024-02-28T00:46:18;5.20;99.90
30069;DHT22;16894;49.456;10.644;2024-02-28T00:49:02;5.20;99.90
30069;DHT22;16894;49.456;10.644;2024-02-28T00:51:46;5.20;99.90
30069;DHT22;16894;49.456;10.644;2024-02-28T00:54:30;5.20;99.90
30069;DHT22;16894;49.456;10.644;2024-02-28T00:57:15;5.20;99.90
30069;DHT22;16894;49.456;10.644;2024-02-28T00:59:59;5.20;99.90
30069;DHT22;16894;49.456;10.644;2024-02-28T01:02:43;5.10;99.90
30069;DHT22;16894;49.456;10.644;2024-02-28T01:05:27;5.20;99.90
30069;DHT22;16894;49.456;10.644;2024-02-28T01:08:12;5.20;99.90
30069;DHT22;16894;49.456;10.644;2024-02-28T01:10:56;5.10;99.90
30069;DHT22;16894;49.456;10.644;2024-02-28T01:13:40;5.20;99.90
30069;DHT22;16894;49.456;10.644;2024-02-28T01:16:25;5.10;99.90
30069;DHT22;16894;49.456;10.644;2024-02-28T01:19:09;5.20;99.90
30069;DHT22;16894;49.456;10.644;2024-02-28T01:21:54;5.10;99.90
30069;DHT22;16894;49.456;10.644;2024-02-28T01:24:38;5.10;99.90
30069;DHT22;16894;49.456;10.644;2024-02-28T01:27:22;5.00;99.90
30069;DHT22;16894;49.456;10.644;2024-02-28T01:30:07;5.10;99.90
30069;DHT22;16894;49.456;10.644;2024-02-28T01:32:51;5.10;99.90
30069;DHT22;16894;49.456;10.644;2024-02-28T01:35:35;5.00;99.90
30069;DHT22;16894;49.456;10.644;2024-02-28T01:38:19;5.00;99.90
30069;DHT22;16894;49.456;10.644;2024-02-28T01:41:04;5.00;99.90
30069;DHT22;16894;49.456;10.644;2024-02-28T01:43:49;5.00;99.90
30069;DHT22;16894;49.456;10.644;2024-02-28T01:46:33;5.00;99.90
30069;DHT22;16894;49.456;10.644;2024-02-28T01:49:17;5.00;99.90
30069;DHT22;16894;49.456;10.644;2024-02-28T01:52:02;5.10;99.90
30069;DHT22;16894;49.456;10.644;2024-02-28T01:54:47;5.10;99.90
30069;DHT22;16894;49.456;10.644;2024-02-28T01:57:32;5.10;99.90
30069;DHT22;16894;49.456;10.644;2024-02-28T02:00:16;5.10;99.90
30069;DHT22;16894;49.456;10.644;2024-02-28T02:03:01;5.00;99.90
30069;DHT22;16894;49.456;10.644;2024-02-28T02:05:46;5.00;99.90
30069;DHT22;16894;49.456;10.644;2024-02-28T02:08:31;5.00;99.90
30069;DHT22;16894;49.456;10.644;2024-02-28T02:11:16;5.00;99.90
30069;DHT22;16894;49.456;10.644;2024-02-28T02:14:02;4.90;99.90
30069;DHT22;16894;49.456;10.644;2024-02-28T02:16:46;5.00;99.90
30069;DHT22;16894;49.456;10.644;2024-02-28T02:19:31;4.90;99.90
30069;DHT22;16894;49.456;10.644;2024-02-28T02:22:15;4.90;99.90
30069;DHT22;16894;49.456;10.644;2024-02-28T02:25:02;5.00;99.90
30069;DHT22;16894;49.456;10.644;2024-02-28T02:27:46;5.00;99.90
30069;DHT22;16894;49.456;10.644;2024-02-28T02:30:30;5.00;99.90
30069;DHT22;16894;49.456;10.644;2024-02-28T02:33:14;4.90;99.90
30069;DHT22;16894;49.456;10.644;2024-02-28T02:35:59;4.90;99.90
30069;DHT22;16894;49.456;10.644;2024-02-28T02:38:43;4.90;99.90
30069;DHT22;16894;49.456;10.644;2024-02-28T02:41:27;4.90;99.90
30069;DHT22;16894;49.456;10.644;2024-02-28T02:44:12;4.80;99.90
30069;DHT22;16894;49.456;10.644;2024-02-28T02:46:56;4.80;99.90
30069;DHT22;16894;49.456;10.644;2024-02-28T02:49:40;4.90;99.90
30069;DHT22;16894;49.456;10.644;2024-02-28T02:52:24;4.90;99.90
30069;DHT22;16894;49.456;10.644;2024-02-28T02:55:09;4.90;99.90
30069;DHT22;16894;49.456;10.644;2024-02-28T02:57:53;4.90;99.90
30069;DHT22;16894;49.456;10.644;2024-02-28T03:00:37;4.90;99.90
30069;DHT22;16894;49.456;10.644;2024-02-28T03:03:21;5.00;99.90
30069;DHT22;16894;49.456;10.644;2024-02-28T03:06:06;5.00;99.90
30069;DHT22;16894;49.456;10.644;2024-02-28T03:08:50;5.00;99.90
30069;DHT22;16894;49.456;10.644;2024-02-28T03:11:36;5.00;99.90
30069;DHT22;16894;49.456;10.644;2024-02-28T03:14:20;5.00;99.90
30069;DHT22;16894;49.456;10.644;2024-02-28T03:17:06;5.00;99.90
30069;DHT22;16894;49.456;10.644;2024-02-28T03:19:50;5.00;99.90
30069;DHT22;16894;49.456;10.644;2024-02-28T03:22:34;5.10;99.90
30069;DHT22;16894;49.456;10.644;2024-02-28T03:25:18;5.10;99.90
30069;DHT22;16894;49.456;10.644;2024-02-28T03:28:03;5.00;99.90
30069;DHT22;16894;49.456;10.644;2024-02-28T03:30:47;5.00;99.90
30069;DHT22;16894;49.456;10.644;2024-02-28T03:33:31;4.90;99.90
30069;DHT22;16894;49.456;10.644;2024-02-28T03:36:17;4.90;99.90
30069;DHT22;16894;49.456;10.644;2024-02-28T03:39:01;4.90;99.90
30069;DHT22;16894;49.456;10.644;2024-02-28T03:41:45;5.00;99.90
30069;DHT22;16894;49.456;10.644;2024-02-28T03:44:29;5.00;99.90
30069;DHT22;16894;49.456;10.644;2024-02-28T03:47:14;4.90;99.90
30069;DHT22;16894;49.456;10.644;2024-02-28T03:49:58;4.90;99.90
30069;DHT22;16894;49.456;10.644;2024-02-28T03:52:43;4.90;99.90
30069;DHT22;16894;49.456;10.644;2024-02-28T03:55:27;5.00;99.90
30069;DHT22;16894;49.456;10.644;2024-02-28T03:58:12;5.00;99.90
30069;DHT22;16894;49.456;10.644;2024-02-28T04:00:56;5.00;99.90
30069;DHT22;16894;49.456;10.644;2024-02-28T04:03:41;5.00;99.90
30069;DHT22;16894;49.456;10.644;2024-02-28T04:06:25;5.00;99.90
30069;DHT22;16894;49.456;10.644;2024-02-28T04:09:09;5.10;99.90
30069;DHT22;16894;49.456;10.644;2024-02-28T04:11:53;5.00;99.90
30069;DHT22;16894;49.456;10.644;2024-02-28T04:14:38;4.90;99.90
30069;DHT22;16894;49.456;10.644;2024-02-28T04:17:22;4.80;99.90
30069;DHT22;16894;49.456;10.644;2024-02-28T04:20:10;4.80;99.90
30069;DHT22;16894;49.456;10.644;2024-02-28T04:22:54;4.80;99.90
30069;DHT22;16894;49.456;10.644;2024-02-28T04:25:39;4.80;99.90
30069;DHT22;16894;49.456;10.644;2024-02-28T04:28:24;4.80;99.90
30069;DHT22;16894;49.456;10.644;2024-02-28T04:31:09;4.80;99.90
30069;DHT22;16894;49.456;10.644;2024-02-28T04:33:53;4.70;99.90
30069;DHT22;16894;49.456;10.644;2024-02-28T04:36:37;4.70;1.00
30069;DHT22;16894;49.456;10.644;2024-02-28T04:39:22;4.80;99.90
30069;DHT22;16894;49.456;10.644;2024-02-28T04:42:06;4.80;99.90
30069;DHT22;16894;49.456;10.644;2024-02-28T04:44:51;4.80;99.90
30069;DHT22;16894;49.456;10.644;2024-02-28T04:47:36;4.90;99.90
30069;DHT22;16894;49.456;10.644;2024-02-28T04:50:20;4.90;99.90
30069;DHT22;16894;49.456;10.644;2024-02-28T04:53:05;4.90;99.90
30069;DHT22;16894;49.456;10.644;2024-02-28T04:55:49;5.00;99.90
30069;DHT22;16894;49.456;10.644;2024-02-28T04:58:35;5.00;99.90
30069;DHT22;16894;49.456;10.644;2024-02-28T05:01:19;5.00;99.90
30069;DHT22;16894;49.456;10.644;2024-02-28T05:04:04;5.00;99.90
30069;DHT22;16894;49.456;10.644;2024-02-28T05:06:48;5.00;99.90
30069;DHT22;16894;49.456;10.644;2024-02-28T05:09:32;5.00;99.90
30069;DHT22;16894;49.456;10.644;2024-02-28T05:12:16;5.00;99.90
30069;DHT22;16894;49.456;10.644;2024-02-28T05:15:00;5.00;99.90
30069;DHT22;16894;49.456;10.644;2024-02-28T05:17:45;4.90;99.90
30069;DHT22;16894;49.456;10.644;2024-02-28T05:20:29;4.90;99.90
30069;DHT22;16894;49.456;10.644;2024-02-28T05:23:13;4.90;99.90
30069;DHT22;16894;49.456;10.644;2024-02-28T05:25:57;5.00;99.90
30069;DHT22;16894;49.456;10.644;2024-02-28T05:28:47;5.00;99.90
30069;DHT22;16894;49.456;10.644;2024-02-28T05:31:31;5.00;99.90
30069;DHT22;16894;49.456;10.644;2024-02-28T05:34:15;5.00;99.90
30069;DHT22;16894;49.456;10.644;2024-02-28T05:37:00;5.00;99.90
30069;DHT22;16894;49.456;10.644;2024-02-28T05:39:45;5.00;99.90
30069;DHT22;16894;49.456;10.644;2024-02-28T05:42:29;4.90;99.90
30069;DHT22;16894;49.456;10.644;2024-02-28T05:45:15;5.00;99.90
30069;DHT22;16894;49.456;10.644;2024-02-28T05:47:59;5.00;99.90
30069;DHT22;16894;49.456;10.644;2024-02-28T05:50:44;4.90;99.90
30069;DHT22;16894;49.456;10.644;2024-02-28T05:53:28;5.00;99.90
30069;DHT22;16894;49.456;10.644;2024-02-28T05:56:16;4.90;99.90
30069;DHT22;16894;49.456;10.644;2024-02-28T05:59:03;4.90;99.90
30069;DHT22;16894;49.456;10.644;2024-02-28T06:01:48;5.00;99.90
30069;DHT22;16894;49.456;10.644;2024-02-28T06:04:32;4.90;99.90
30069;DHT22;16894;49.456;10.644;2024-02-28T06:07:17;4.90;99.90
30069;DHT22;16894;49.456;10.644;2024-02-28T06:10:01;4.90;99.90
30069;DHT22;16894;49.456;10.644;2024-02-28T06:12:45;4.90;99.90
30069;DHT22;16894;49.456;10.644;2024-02-28T06:15:29;5.00;99.90
30069;DHT22;16894;49.456;10.644;2024-02-28T06:18:14;4.90;99.90
30069;DHT22;16894;49.456;10.644;2024-02-28T06:20:59;4.90;99.90
30069;DHT22;16894;49.456;10.644;2024-02-28T06:23:44;4.90;99.90
30069;DHT22;16894;49.456;10.644;2024-02-28T06:26:29;4.90;99.90
30069;DHT22;16894;49.456;10.644;2024-02-28T06:29:15;4.90;99.90
30069;DHT22;16894;49.456;10.644;2024-02-28T06:31:59;4.90;99.90
30069;DHT22;16894;49.456;10.644;2024-02-28T06:34:44;4.90;99.90
30069;DHT22;16894;49.456;10.644;2024-02-28T06:37:28;5.00;99.90
30069;DHT22;16894;49.456;10.644;2024-02-28T06:40:12;4.90;99.90
30069;DHT22;16894;49.456;10.644;2024-02-28T06:42:56;5.00;99.90
30069;DHT22;16894;49.456;10.644;2024-02-28T06:45:40;5.00;99.90
30069;DHT22;16894;49.456;10.644;2024-02-28T06:48:25;4.90;99.90
30069;DHT22;16894;49.456;10.644;2024-02-28T06:51:09;4.90;99.90
30069;DHT22;16894;49.456;10.644;2024-02-28T06:53:53;4.90;99.90
30069;DHT22;16894;49.456;10.644;2024-02-28T06:56:38;5.00;99.90
30069;DHT22;16894;49.456;10.644;2024-02-28T06:59:22;5.00;99.90
30069;DHT22;16894;49.456;10.644;2024-02-28T07:02:07;5.00;99.90
30069;DHT22;16894;49.456;10.644;2024-02-28T07:04:51;5.00;99.90
30069;DHT22;16894;49.456;10.644;2024-02-28T07:07:35;5.00;99.90
30069;DHT22;16894;49.456;10.644;2024-02-28T07:10:19;5.00;99.90
30069;DHT22;16894;49.456;10.644;2024-02-28T07:13:04;5.00;99.90
30069;DHT22;16894;49.456;10.644;2024-02-28T07:15:48;5.00;99.90
30069;DHT22;16894;49.456;10.644;2024-02-28T07:18:38;5.00;99.90
30069;DHT22;16894;49.456;10.644;2024-02-28T07:21:22;5.00;99.90
30069;DHT22;16894;49.456;10.644;2024-02-28T07:24:06;5.00;99.90
30069;DHT22;16894;49.456;10.644;2024-02-28T07:26:51;5.10;99.90
30069;DHT22;16894;49.456;10.644;2024-02-28T07:29:36;5.10;99.90
30069;DHT22;16894;49.456;10.644;2024-02-28T07:32:20;5.10;99.90
30069;DHT22;16894;49.456;10.644;2024-02-28T07:35:05;5.10;99.90
30069;DHT22;16894;49.456;10.644;2024-02-28T07:37:49;5.00;99.90
30069;DHT22;16894;49.456;10.644;2024-02-28T07:40:33;5.10;99.90
30069;DHT22;16894;49.456;10.644;2024-02-28T07:43:18;5.10;99.90
30069;DHT22;16894;49.456;10.644;2024-02-28T07:46:06;5.10;99.90
30069;DHT22;16894;49.456;10.644;2024-02-28T07:48:50;5.10;99.90
30069;DHT22;16894;49.456;10.644;2024-02-28T07:51:34;5.10;99.90
30069;DHT22;16894;49.456;10.644;2024-02-28T07:54:18;5.20;99.90
30069;DHT22;16894;49.456;10.644;2024-02-28T07:57:02;5.20;99.90
30069;DHT22;16894;49.456;10.644;2024-02-28T07:59:47;5.20;99.90
30069;DHT22;16894;49.456;10.644;2024-02-28T08:02:31;5.20;99.90
30069;DHT22;16894;49.456;10.644;2024-02-28T08:05:16;5.20;99.90
30069;DHT22;16894;49.456;10.644;2024-02-28T08:08:00;5.30;99.90
30069;DHT22;16894;49.456;10.644;2024-02-28T08:10:45;5.20;99.90
30069;DHT22;16894;49.456;10.644;2024-02-28T08:13:31;5.30;99.90
30069;DHT22;16894;49.456;10.644;2024-02-28T08:16:16;5.40;99.90
30069;DHT22;16894;49.456;10.644;2024-02-28T08:19:00;5.30;99.90
30069;DHT22;16894;49.456;10.644;2024-02-28T08:21:44;5.40;99.90
30069;DHT22;16894;49.456;10.644;2024-02-28T08:24:29;5.30;99.90
30069;DHT22;16894;49.456;10.644;2024-02-28T08:27:13;5.40;99.90
30069;DHT22;16894;49.456;10.644;2024-02-28T08:29:57;5.40;99.90
30069;DHT22;16894;49.456;10.644;2024-02-28T08:32:41;5.40;99.90
30069;DHT22;16894;49.456;10.644;2024-02-28T08:35:26;5.40;99.90
30069;DHT22;16894;49.456;10.644;2024-02-28T08:38:10;5.40;99.90
30069;DHT22;16894;49.456;10.644;2024-02-28T08:40:55;5.40;99.90
30069;DHT22;16894;49.456;10.644;2024-02-28T08:43:39;5.40;99.90
30069;DHT22;16894;49.456;10.644;2024-02-28T08:46:24;5.40;99.90
30069;DHT22;16894;49.456;10.644;2024-02-28T08:49:08;5.40;99.90
30069;DHT22;16894;49.456;10.644;2024-02-28T08:51:53;5.30;99.90
30069;DHT22;16894;49.456;10.644;2024-02-28T08:54:37;5.40;99.90
30069;DHT22;16894;49.456;10.644;2024-02-28T08:57:21;5.40;99.90
30069;DHT22;16894;49.456;10.644;2024-02-28T09:00:07;5.40;99.90
30069;DHT22;16894;49.456;10.644;2024-02-28T09:02:52;5.50;99.90
30069;DHT22;16894;49.456;10.644;2024-02-28T09:05:37;5.50;99.90
30069;DHT22;16894;49.456;10.644;2024-02-28T09:08:21;5.40;99.90
30069;DHT22;16894;49.456;10.644;2024-02-28T09:11:05;5.40;99.90
30069;DHT22;16894;49.456;10.644;2024-02-28T09:13:50;5.60;99.90
30069;DHT22;16894;49.456;10.644;2024-02-28T09:16:34;5.60;99.90
30069;DHT22;16894;49.456;10.644;2024-02-28T09:19:18;5.60;99.90
30069;DHT22;16894;49.456;10.644;2024-02-28T09:22:02;5.70;99.90
30069;DHT22;16894;49.456;10.644;2024-02-28T09:24:47;5.60;97.60
30069;DHT22;16894;49.456;10.644;2024-02-28T09:27:32;5.60;99.90
30069;DHT22;16894;49.456;10.644;2024-02-28T09:30:16;5.50;92.50
30069;DHT22;16894;49.456;10.644;2024-02-28T09:33:02;5.50;99.90
30069;DHT22;16894;49.456;10.644;2024-02-28T09:35:46;5.60;99.90
30069;DHT22;16894;49.456;10.644;2024-02-28T09:38:30;5.60;94.20
30069;DHT22;16894;49.456;10.644;2024-02-28T09:41:16;5.60;98.40
30069;DHT22;16894;49.456;10.644;2024-02-28T09:44:02;5.70;99.90
30069;DHT22;16894;49.456;10.644;2024-02-28T09:46:47;5.70;99.90
30069;DHT22;16894;49.456;10.644;2024-02-28T09:49:33;5.80;1.00
30069;DHT22;16894;49.456;10.644;2024-02-28T09:52:17;5.80;91.00
30069;DHT22;16894;49.456;10.644;2024-02-28T09:55:02;5.90;1.00
30069;DHT22;16894;49.456;10.644;2024-02-28T09:57:50;6.00;1.00
30069;DHT22;16894;49.456;10.644;2024-02-28T10:00:34;6.00;10.60
30069;DHT22;16894;49.456;10.644;2024-02-28T10:03:19;6.00;1.00
30069;DHT22;16894;49.456;10.644;2024-02-28T10:06:04;6.10;1.00
30069;DHT22;16894;49.456;10.644;2024-02-28T10:08:48;6.10;1.00
30069;DHT22;16894;49.456;10.644;2024-02-28T10:11:33;6.20;1.00
30069;DHT22;16894;49.456;10.644;2024-02-28T10:14:19;6.30;99.90
30069;DHT22;16894;49.456;10.644;2024-02-28T10:17:04;6.40;1.00
30069;DHT22;16894;49.456;10.644;2024-02-28T10:19:51;6.50;99.90
30069;DHT22;16894;49.456;10.644;2024-02-28T10:22:35;6.60;99.90
30069;DHT22;16894;49.456;10.644;2024-02-28T10:25:20;6.70;96.40
30069;DHT22;16894;49.456;10.644;2024-02-28T10:28:04;6.70;58.00
30069;DHT22;16894;49.456;10.644;2024-02-28T10:30:49;6.70;4.70
30069;DHT22;16894;49.456;10.644;2024-02-28T10:33:33;6.60;65.00
30069;DHT22;16894;49.456;10.644;2024-02-28T10:36:19;6.70;99.90
30069;DHT22;16894;49.456;10.644;2024-02-28T10:39:03;6.90;99.90
30069;DHT22;16894;49.456;10.644;2024-02-28T10:41:47;7.00;11.60
30069;DHT22;16894;49.456;10.644;2024-02-28T10:44:32;7.00;1.00
30069;DHT22;16894;49.456;10.644;2024-02-28T10:47:19;7.10;1.00
30069;DHT22;16894;49.456;10.644;2024-02-28T10:50:03;7.10;1.00
30069;DHT22;16894;49.456;10.644;2024-02-28T10:52:48;7.10;44.20
30069;DHT22;16894;49.456;10.644;2024-02-28T10:55:34;7.20;99.90
30069;DHT22;16894;49.456;10.644;2024-02-28T10:58:20;7.20;99.90
30069;DHT22;16894;49.456;10.644;2024-02-28T11:01:05;7.20;99.90
30069;DHT22;16894;49.456;10.644;2024-02-28T11:03:50;7.30;99.90
30069;DHT22;16894;49.456;10.644;2024-02-28T11:06:34;7.40;1.00
30069;DHT22;16894;49.456;10.644;2024-02-28T11:09:19;7.70;1.00
30069;DHT22;16894;49.456;10.644;2024-02-28T11:12:04;7.60;99.90
30069;DHT22;16894;49.456;10.644;2024-02-28T11:14:55;7.50;1.00
30069;DHT22;16894;49.456;10.644;2024-02-28T11:17:39;7.50;99.90
30069;DHT22;16894;49.456;10.644;2024-02-28T11:20:31;7.40;1.00
30069;DHT22;16894;49.456;10.644;2024-02-28T11:23:17;7.20;1.00
30069;DHT22;16894;49.456;10.644;2024-02-28T11:26:01;7.30;99.90
30069;DHT22;16894;49.456;10.644;2024-02-28T11:28:45;7.40;99.90
30069;DHT22;16894;49.456;10.644;2024-02-28T11:31:29;7.40;64.30
30069;DHT22;16894;49.456;10.644;2024-02-28T11:34:14;7.60;1.00
30069;DHT22;16894;49.456;10.644;2024-02-28T11:36:58;7.60;99.90
30069;DHT22;16894;49.456;10.644;2024-02-28T11:39:46;7.70;93.20
30069;DHT22;16894;49.456;10.644;2024-02-28T11:42:30;7.80;33.70
30069;DHT22;16894;49.456;10.644;2024-02-28T11:45:14;7.90;99.90
30069;DHT22;16894;49.456;10.644;2024-02-28T11:48:00;8.10;99.90
30069;DHT22;16894;49.456;10.644;2024-02-28T11:50:44;8.10;99.90
30069;DHT22;16894;49.456;10.644;2024-02-28T11:53:29;8.10;99.90
30069;DHT22;16894;49.456;10.644;2024-02-28T11:56:13;8.00;99.90
30069;DHT22;16894;49.456;10.644;2024-02-28T11:59:01;8.00;99.90
30069;DHT22;16894;49.456;10.644;2024-02-28T12:01:45;8.10;99.90
30069;DHT22;16894;49.456;10.644;2024-02-28T12:04:30;8.00;96.80
30069;DHT22;16894;49.456;10.644;2024-02-28T12:07:15;7.90;64.00
30069;DHT22;16894;49.456;10.644;2024-02-28T12:09:59;7.60;99.90
30069;DHT22;16894;49.456;10.644;2024-02-28T12:12:43;7.50;91.50
30069;DHT22;16894;49.456;10.644;2024-02-28T12:15:29;7.60;1.00
30069;DHT22;16894;49.456;10.644;2024-02-28T12:18:14;7.60;1.00
30069;DHT22;16894;49.456;10.644;2024-02-28T12:20:59;7.50;38.20
30069;DHT22;16894;49.456;10.644;2024-02-28T12:23:43;7.60;99.90
30069;DHT22;16894;49.456;10.644;2024-02-28T12:26:27;7.70;99.90
30069;DHT22;16894;49.456;10.644;2024-02-28T12:29:12;7.70;1.00
30069;DHT22;16894;49.456;10.644;2024-02-28T12:31:56;7.80;99.90
30069;DHT22;16894;49.456;10.644;2024-02-28T12:34:40;7.70;99.90
30069;DHT22;16894;49.456;10.644;2024-02-28T12:37:24;7.60;1.00
30069;DHT22;16894;49.456;10.644;2024-02-28T12:40:09;7.70;99.90
30069;DHT22;16894;49.456;10.644;2024-02-28T12:42:53;7.80;99.90
30069;DHT22;16894;49.456;10.644;2024-02-28T12:45:37;7.80;99.90
30069;DHT22;16894;49.456;10.644;2024-02-28T12:48:21;7.80;99.90
30069;DHT22;16894;49.456;10.644;2024-02-28T12:51:06;7.90;1.00
30069;DHT22;16894;49.456;10.644;2024-02-28T12:53:50;7.80;1.00
30069;DHT22;16894;49.456;10.644;2024-02-28T12:56:35;7.90;99.90
30069;DHT22;16894;49.456;10.644;2024-02-28T12:59:19;7.70;99.90
30069;DHT22;16894;49.456;10.644;2024-02-28T13:02:04;7.80;87.60
30069;DHT22;16894;49.456;10.644;2024-02-28T13:04:48;7.80;1.00
30069;DHT22;16894;49.456;10.644;2024-02-28T13:07:32;8.00;1.00
30069;DHT22;16894;49.456;10.644;2024-02-28T13:10:17;8.10;1.00
30069;DHT22;16894;49.456;10.644;2024-02-28T13:13:01;8.20;99.90
30069;DHT22;16894;49.456;10.644;2024-02-28T13:15:46;8.40;99.90
30069;DHT22;16894;49.456;10.644;2024-02-28T13:18:30;8.70;99.90
30069;DHT22;16894;49.456;10.644;2024-02-28T13:21:15;8.80;99.90
30069;DHT22;16894;49.456;10.644;2024-02-28T13:23:59;8.80;99.90
30069;DHT22;16894;49.456;10.644;2024-02-28T13:26:44;8.70;99.90
30069;DHT22;16894;49.456;10.644;2024-02-28T13:29:28;8.90;99.90
30069;DHT22;16894;49.456;10.644;2024-02-28T13:32:13;8.80;99.90
30069;DHT22;16894;49.456;10.644;2024-02-28T13:34:57;9.00;99.90
30069;DHT22;16894;49.456;10.644;2024-02-28T13:37:41;8.90;50.00
30069;DHT22;16894;49.456;10.644;2024-02-28T13:40:26;9.10;1.00
30069;DHT22;16894;49.456;10.644;2024-02-28T13:43:11;9.10;1.00
30069;DHT22;16894;49.456;10.644;2024-02-28T13:45:55;9.30;1.00
30069;DHT22;16894;49.456;10.644;2024-02-28T13:48:44;10.40;99.90
30069;DHT22;16894;49.456;10.644;2024-02-28T13:51:28;12.70;99.90
30069;DHT22;16894;49.456;10.644;2024-02-28T13:54:12;14.00;1.00
30069;DHT22;16894;49.456;10.644;2024-02-28T13:56:57;13.70;99.90
30069;DHT22;16894;49.456;10.644;2024-02-28T13:59:42;14.20;99.90
30069;DHT22;16894;49.456;10.644;2024-02-28T14:02:27;14.90;99.90
30069;DHT22;16894;49.456;10.644;2024-02-28T14:05:11;15.30;99.90
30069;DHT22;16894;49.456;10.644;2024-02-28T14:07:55;15.90;99.90
30069;DHT22;16894;49.456;10.644;2024-02-28T14:10:40;15.70;99.90
30069;DHT22;16894;49.456;10.644;2024-02-28T14:13:25;15.70;99.90
30069;DHT22;16894;49.456;10.644;2024-02-28T14:16:09;15.40;99.90
30069;DHT22;16894;49.456;10.644;2024-02-28T14:18:53;15.50;99.90
30069;DHT22;16894;49.456;10.644;2024-02-28T14:21:37;14.20;99.90
30069;DHT22;16894;49.456;10.644;2024-02-28T14:24:22;13.80;99.90
30069;DHT22;16894;49.456;10.644;2024-02-28T14:27:06;14.90;99.90
30069;DHT22;16894;49.456;10.644;2024-02-28T14:29:50;15.80;99.90
30069;DHT22;16894;49.456;10.644;2024-02-28T14:32:35;14.60;99.90
30069;DHT22;16894;49.456;10.644;2024-02-28T14:35:20;12.70;99.90
30069;DHT22;16894;49.456;10.644;2024-02-28T14:38:04;11.60;99.90
30069;DHT22;16894;49.456;10.644;2024-02-28T14:40:50;10.60;99.90
30069;DHT22;16894;49.456;10.644;2024-02-28T14:43:35;10.20;99.90
30069;DHT22;16894;49.456;10.644;2024-02-28T14:46:19;10.20;99.90
30069;DHT22;16894;49.456;10.644;2024-02-28T14:49:05;10.20;99.90
30069;DHT22;16894;49.456;10.644;2024-02-28T14:51:49;10.10;99.90
30069;DHT22;16894;49.456;10.644;2024-02-28T14:54:34;10.00;99.90
30069;DHT22;16894;49.456;10.644;2024-02-28T14:57:18;9.80;99.90
30069;DHT22;16894;49.456;10.644;2024-02-28T15:00:02;9.80;99.90
30069;DHT22;16894;49.456;10.644;2024-02-28T15:02:54;9.70;99.90
30069;DHT22;16894;49.456;10.644;2024-02-28T15:05:38;9.70;1.00
30069;DHT22;16894;49.456;10.644;2024-02-28T15:08:24;9.70;99.90
30069;DHT22;16894;49.456;10.644;2024-02-28T15:11:08;9.50;1.00
30069;DHT22;16894;49.456;10.644;2024-02-28T15:13:53;9.40;1.00
30069;DHT22;16894;49.456;10.644;2024-02-28T15:16:37;9.00;47.40
30069;DHT22;16894;49.456;10.644;2024-02-28T15:19:21;8.60;99.90
30069;DHT22;16894;49.456;10.644;2024-02-28T15:22:06;8.40;99.90
30069;DHT22;16894;49.456;10.644;2024-02-28T15:24:51;8.30;99.90
30069;DHT22;16894;49.456;10.644;2024-02-28T15:27:38;8.20;1.00
30069;DHT22;16894;49.456;10.644;2024-02-28T15:30:22;8.00;99.90
30069;DHT22;16894;49.456;10.644;2024-02-28T15:33:06;7.90;99.90
30069;DHT22;16894;49.456;10.644;2024-02-28T15:35:51;7.80;99.90
30069;DHT22;16894;49.456;10.644;2024-02-28T15:38:35;7.70;33.60
30069;DHT22;16894;49.456;10.644;2024-02-28T15:41:20;7.60;99.90
30069;DHT22;16894;49.456;10.644;2024-02-28T15:44:06;7.40;99.90
30069;DHT22;16894;49.456;10.644;2024-02-28T15:46:50;7.40;99.90
30069;DHT22;16894;49.456;10.644;2024-02-28T15:49:34;7.30;1.00
30069;DHT22;16894;49.456;10.644;2024-02-28T15:52:19;7.30;33.40
30069;DHT22;16894;49.456;10.644;2024-02-28T15:55:03;7.20;45.30
30069;DHT22;16894;49.456;10.644;2024-02-28T15:57:48;7.20;99.90
30069;DHT22;16894;49.456;10.644;2024-02-28T16:00:32;7.20;99.90
30069;DHT22;16894;49.456;10.644;2024-02-28T16:03:16;7.10;1.00
30069;DHT22;16894;49.456;10.644;2024-02-28T16:06:03;7.10;99.90
30069;DHT22;16894;49.456;10.644;2024-02-28T16:08:48;7.00;99.90
30069;DHT22;16894;49.456;10.644;2024-02-28T16:11:32;7.00;99.90
30069;DHT22;16894;49.456;10.644;2024-02-28T16:14:17;6.90;1.00
30069;DHT22;16894;49.456;10.644;2024-02-28T16:17:01;6.80;87.80
30069;DHT22;16894;49.456;10.644;2024-02-28T16:19:46;6.80;99.90
30069;DHT22;16894;49.456;10.644;2024-02-28T16:22:30;6.80;99.90
30069;DHT22;16894;49.456;10.644;2024-02-28T16:25:14;6.70;99.90
30069;DHT22;16894;49.456;10.644;2024-02-28T16:27:58;6.70;99.90
30069;DHT22;16894;49.456;10.644;2024-02-28T16:30:43;6.60;1.00
30069;DHT22;16894;49.456;10.644;2024-02-28T16:33:30;6.60;1.00
30069;DHT22;16894;49.456;10.644;2024-02-28T16:36:14;6.50;90.20
30069;DHT22;16894;49.456;10.644;2024-02-28T16:38:58;6.50;99.90
30069;DHT22;16894;49.456;10.644;2024-02-28T16:41:43;6.40;99.90
30069;DHT22;16894;49.456;10.644;2024-02-28T16:44:27;6.30;99.90
30069;DHT22;16894;49.456;10.644;2024-02-28T16:47:13;6.20;99.90
30069;DHT22;16894;49.456;10.644;2024-02-28T16:49:59;6.20;1.00
30069;DHT22;16894;49.456;10.644;2024-02-28T16:52:44;6.00;1.00
30069;DHT22;16894;49.456;10.644;2024-02-28T16:55:28;5.90;99.90
30069;DHT22;16894;49.456;10.644;2024-02-28T16:58:12;5.90;99.90
30069;DHT22;16894;49.456;10.644;2024-02-28T17:00:57;5.70;99.90
30069;DHT22;16894;49.456;10.644;2024-02-28T17:03:42;5.50;99.90
30069;DHT22;16894;49.456;10.644;2024-02-28T17:06:26;5.50;99.90
30069;DHT22;16894;49.456;10.644;2024-02-28T17:09:10;5.30;1.00
30069;DHT22;16894;49.456;10.644;2024-02-28T17:11:54;5.30;1.00
30069;DHT22;16894;49.456;10.644;2024-02-28T17:14:38;5.20;22.30
30069;DHT22;16894;49.456;10.644;2024-02-28T17:17:23;5.00;59.30
30069;DHT22;16894;49.456;10.644;2024-02-28T17:20:07;5.00;99.90
30069;DHT22;16894;49.456;10.644;2024-02-28T17:22:51;4.90;99.90